createdAt,value
2022-08-22T00:00:58.989Z,82.22
2022-08-22T00:02:51.892Z,67.37
2022-08-22T00:02:52.046Z,45.57
2022-08-22T00:03:05.370Z,60.61
2022-08-22T00:03:14.914Z,82.49
2022-08-22T00:05:01.591Z,82.68
2022-08-22T00:07:02.951Z,83.04
2022-08-22T00:11:05.480Z,83.33
2022-08-22T00:13:07.030Z,83.41
2022-08-22T00:17:09.252Z,83.93
2022-08-22T00:19:10.885Z,83.93
2022-08-22T00:21:12.268Z,84.12
2022-08-22T00:23:13.645Z,83.96
2022-08-22T00:25:24.905Z,84.19
2022-08-22T00:27:16.723Z,84.05
2022-08-22T00:29:18.410Z,84.17
2022-08-22T00:31:19.525Z,84.01
2022-08-22T00:33:21.014Z,84.04
2022-08-22T00:35:22.730Z,84.34
2022-08-22T00:37:24.230Z,84.57
2022-08-22T00:39:25.258Z,84.08
2022-08-22T00:41:26.433Z,84.24
2022-08-22T00:43:27.588Z,84.71
2022-08-22T00:45:28.637Z,85.04
2022-08-22T00:47:29.815Z,85.39
2022-08-22T00:49:31.455Z,85.56
2022-08-22T00:51:32.889Z,86.19
2022-08-22T00:53:34.575Z,86.86
2022-08-22T00:55:36.242Z,88.01
2022-08-22T00:57:37.615Z,89.51
2022-08-22T00:59:39.411Z,89.48
2022-08-22T01:01:41.086Z,89.34
2022-08-22T01:03:42.431Z,88.73
2022-08-22T01:05:44.221Z,88.43
2022-08-22T01:09:47.100Z,87.68
2022-08-22T01:11:48.690Z,87.23
2022-08-22T01:13:50.266Z,87.01
2022-08-22T01:15:51.498Z,87.78
2022-08-22T01:17:53.041Z,88.03
2022-08-22T01:19:54.925Z,87.96
2022-08-22T01:21:56.699Z,88.18
2022-08-22T01:23:58.077Z,88.63
2022-08-22T01:28:00.894Z,88.41
2022-08-22T01:32:04.098Z,88.49
2022-08-22T01:34:05.868Z,88.49
2022-08-22T01:36:07.434Z,88.61
2022-08-22T01:38:08.925Z,88.98
2022-08-22T01:40:10.461Z,89.22
2022-08-22T01:42:11.417Z,89.38
2022-08-22T01:44:13.332Z,89.45
2022-08-22T01:46:14.644Z,89.59
2022-08-22T01:48:16.443Z,89.59
2022-08-22T01:52:19.474Z,89.53
2022-08-22T01:54:21.087Z,89.61
2022-08-22T01:56:22.483Z,89.66
2022-08-22T01:58:24.174Z,89.89
2022-08-22T02:00:35.017Z,89.88
2022-08-22T02:02:27.033Z,89.91
2022-08-22T02:04:28.465Z,89.86
2022-08-22T02:06:29.382Z,89.77
2022-08-22T02:08:30.551Z,89.38
2022-08-22T02:10:31.620Z,89.18
2022-08-22T02:12:33.268Z,89.24
2022-08-22T02:14:35.092Z,89.37
2022-08-22T02:16:36.633Z,89.68
2022-08-22T02:18:37.846Z,89.95
2022-08-22T02:20:39.501Z,90.24
2022-08-22T02:22:44.343Z,90.25
2022-08-22T02:24:42.762Z,90.31
2022-08-22T02:26:44.266Z,90.49
2022-08-22T02:28:56.861Z,90.78
2022-08-22T02:32:48.835Z,91.02
2022-08-22T02:34:50.179Z,91
2022-08-22T02:36:51.182Z,91.15
2022-08-22T02:38:53.096Z,91.17
2022-08-22T02:40:54.381Z,91.06
2022-08-22T02:42:55.850Z,91.67
2022-08-22T02:44:57.384Z,91.78
2022-08-22T02:46:58.620Z,91.97
2022-08-22T02:49:00.219Z,92.08
2022-08-22T02:51:02.090Z,92.41
2022-08-22T02:53:03.060Z,92.53
2022-08-22T02:55:04.532Z,92.63
2022-08-22T02:57:06.375Z,92.91
2022-08-22T02:59:07.574Z,93.07
2022-08-22T03:01:09.101Z,93.25
2022-08-22T03:03:10.675Z,93.45
2022-08-22T03:07:13.025Z,93.7
2022-08-22T03:09:14.955Z,93.51
2022-08-22T03:11:16.909Z,93.45
2022-08-22T03:13:18.088Z,93.42
2022-08-22T03:17:20.179Z,93.42
2022-08-22T03:19:21.175Z,93.84
2022-08-22T03:23:23.659Z,94.01
2022-08-22T03:25:25.358Z,94.05
2022-08-22T03:27:27.822Z,94.16
2022-08-22T03:29:28.721Z,94.15
2022-08-22T03:31:30.323Z,94.2
2022-08-22T03:33:32.003Z,94.18
2022-08-22T03:35:33.362Z,94.14
2022-08-22T03:37:35.203Z,94.05
2022-08-22T03:39:36.903Z,94.09
2022-08-22T03:42:22.590Z,94.31
2022-08-22T03:44:24.243Z,94.41
2022-08-22T03:46:25.846Z,94.43
2022-08-22T03:48:27.227Z,94.45
2022-08-22T03:50:28.522Z,94.42
2022-08-22T03:52:30.557Z,94.36
2022-08-22T03:54:31.568Z,94.16
2022-08-22T03:56:33.222Z,94
2022-08-22T04:00:37.124Z,93.88
2022-08-22T04:02:43.737Z,93.95
2022-08-22T04:04:40.555Z,94.04
2022-08-22T04:06:42.079Z,94.04
2022-08-22T04:10:45.137Z,94.16
2022-08-22T04:12:46.743Z,94.2
2022-08-22T04:14:48.145Z,94.1
2022-08-22T04:16:49.405Z,94.01
2022-08-22T04:18:51.073Z,94.13
2022-08-22T04:20:52.370Z,94.19
2022-08-22T04:22:53.994Z,94.06
2022-08-22T04:24:55.207Z,94.19
2022-08-22T04:26:56.885Z,94.13
2022-08-22T04:28:58.654Z,94.07
2022-08-22T04:30:59.687Z,94.5
2022-08-22T04:33:01.496Z,94.4
2022-08-22T04:35:02.522Z,94.47
2022-08-22T04:37:04.287Z,94.39
2022-08-22T04:39:05.986Z,94.37
2022-08-22T04:41:07.763Z,94.7
2022-08-22T04:43:09.107Z,94.88
2022-08-22T04:45:10.808Z,94.94
2022-08-22T04:47:12.548Z,94.93
2022-08-22T04:49:14.313Z,94.92
2022-08-22T04:51:15.713Z,95.03
2022-08-22T04:53:17.199Z,95.24
2022-08-22T04:55:19.065Z,95.88
2022-08-22T04:57:20.206Z,95.32
2022-08-22T04:59:21.367Z,93.09
2022-08-22T05:01:23.160Z,90.93
2022-08-22T05:03:24.890Z,90.76
2022-08-22T05:05:26.358Z,90.71
2022-08-22T05:07:28.325Z,90.8
2022-08-22T05:09:29.419Z,90.59
2022-08-22T05:11:30.998Z,90.2
2022-08-22T05:13:32.061Z,90.42
2022-08-22T05:15:33.299Z,89.83
2022-08-22T05:17:34.765Z,88.69
2022-08-22T05:19:35.992Z,88.31
2022-08-22T05:21:37.481Z,87.74
2022-08-22T05:23:38.896Z,87.44
2022-08-22T05:25:40.436Z,86.5
2022-08-22T05:27:42.051Z,85.59
2022-08-22T05:29:43.433Z,83.9
2022-08-22T05:31:44.666Z,82.62
2022-08-22T05:35:50.197Z,81.23
2022-08-22T05:37:48.697Z,81.54
2022-08-22T05:39:50.507Z,80.56
2022-08-22T05:41:51.824Z,80.1
2022-08-22T05:43:52.909Z,82.4
2022-08-22T05:45:53.985Z,82.15
2022-08-22T05:47:55.507Z,80.28
2022-08-22T05:49:57.309Z,81.47
2022-08-22T05:51:58.957Z,80.73
2022-08-22T05:54:00.665Z,82.83
2022-08-22T05:56:01.991Z,83.67
2022-08-22T05:58:03.118Z,82.65
2022-08-22T06:00:04.957Z,83.59
2022-08-22T06:02:06.469Z,83.1
2022-08-22T06:04:08.262Z,83.82
2022-08-22T06:06:09.553Z,82.11
2022-08-22T06:08:11.401Z,82.68
2022-08-22T06:10:13.083Z,83.12
2022-08-22T06:12:18.257Z,79.64
2022-08-22T06:14:15.754Z,78.35
2022-08-22T06:18:17.910Z,76.7
2022-08-22T06:20:19.250Z,73.9
2022-08-22T06:22:20.288Z,73.02
2022-08-22T06:24:22.071Z,74.17
2022-08-22T06:26:23.530Z,74.61
2022-08-22T06:28:24.716Z,74.44
2022-08-22T06:30:26.402Z,73.16
2022-08-22T06:32:31.571Z,69.72
2022-08-22T06:34:29.162Z,68.45
2022-08-22T06:36:30.280Z,69.32
2022-08-22T06:38:31.385Z,69.62
2022-08-22T06:40:32.532Z,71.23
2022-08-22T06:42:33.902Z,70.52
2022-08-22T06:44:35.014Z,71.34
2022-08-22T06:46:36.388Z,71.66
2022-08-22T06:48:37.758Z,70.53
2022-08-22T06:50:38.999Z,70.85
2022-08-22T06:52:40.437Z,72.41
2022-08-22T06:54:41.838Z,70.47
2022-08-22T06:56:43.024Z,68.8
2022-08-22T06:58:44.082Z,70.19
2022-08-22T07:00:49.789Z,69.3
2022-08-22T07:02:46.518Z,69.79
2022-08-22T07:06:49.198Z,69.62
2022-08-22T07:08:50.471Z,69.01
2022-08-22T07:10:51.859Z,68.92
2022-08-22T07:12:53.545Z,67.66
2022-08-22T07:14:54.534Z,67.08
2022-08-22T07:16:55.392Z,67.43
2022-08-22T07:18:57.016Z,67.38
2022-08-22T07:20:58.025Z,66.31
2022-08-22T07:25:00.263Z,66.22
2022-08-22T07:29:04.481Z,64.77
2022-08-22T07:31:04.582Z,65.11
2022-08-22T07:33:21.274Z,63.57
2022-08-22T07:35:08.048Z,63.63
2022-08-22T07:37:08.911Z,64.98
2022-08-22T07:39:11.309Z,65.39
2022-08-22T07:41:12.125Z,65.06
2022-08-22T07:43:13.703Z,63.24
2022-08-22T07:45:15.217Z,61.85
2022-08-22T07:47:17.938Z,61.47
2022-08-22T07:49:17.735Z,61.41
2022-08-22T07:51:18.632Z,61.47
2022-08-22T07:53:20.255Z,60.84
2022-08-22T07:55:21.102Z,59.66
2022-08-22T07:59:23.651Z,59.89
2022-08-22T08:01:25.276Z,59.84
2022-08-22T08:03:26.977Z,59.09
2022-08-22T08:05:27.991Z,58.37
2022-08-22T08:07:29.059Z,60.39
2022-08-22T08:09:31.154Z,59.5
2022-08-22T08:11:32.544Z,56.04
2022-08-22T08:13:34.065Z,55.99
2022-08-22T08:17:37.216Z,55.66
2022-08-22T08:19:38.613Z,55.83
2022-08-22T08:21:39.571Z,54.33
2022-08-22T08:23:40.589Z,52.2
2022-08-22T08:25:42.010Z,51.47
2022-08-22T08:27:42.888Z,50.95
2022-08-22T08:31:45.134Z,47.43
2022-08-22T08:33:46.351Z,47.34
2022-08-22T08:36:03.149Z,46.01
2022-08-22T08:39:49.887Z,41.67
2022-08-22T08:41:51.252Z,40.9
2022-08-22T08:43:52.449Z,41.35
2022-08-22T08:45:56.361Z,41.8
2022-08-22T08:47:55.303Z,40.8
2022-08-22T08:51:57.444Z,40.98
2022-08-22T08:53:59.041Z,40.78
2022-08-22T08:55:59.917Z,40.55
2022-08-22T08:58:01.564Z,40.25
2022-08-22T09:00:02.425Z,39.75
2022-08-22T09:02:03.382Z,41.24
2022-08-22T09:04:04.471Z,38.58
2022-08-22T09:06:05.511Z,39.9
2022-08-22T09:08:06.962Z,38.91
2022-08-22T09:10:08.422Z,39.56
2022-08-22T09:12:10.182Z,39.42
2022-08-22T09:14:11.815Z,40.26
2022-08-22T09:16:12.869Z,39.09
2022-08-22T09:18:14.399Z,38.21
2022-08-22T09:20:17.625Z,38.64
2022-08-22T09:22:17.038Z,38.31
2022-08-22T09:24:18.820Z,39.98
2022-08-22T09:26:19.684Z,40.66
2022-08-22T09:30:27.823Z,38.34
2022-08-22T09:32:23.652Z,40.14
2022-08-22T09:34:25.414Z,38.09
2022-08-22T09:36:26.271Z,38.25
2022-08-22T09:38:27.629Z,37.6
2022-08-22T09:40:28.534Z,37.11
2022-08-22T09:42:30.807Z,38.3
2022-08-22T09:44:31.706Z,37.82
2022-08-22T09:46:36.645Z,37.96
2022-08-22T09:48:34.224Z,38
2022-08-22T09:50:35.280Z,37.82
2022-08-22T09:52:36.682Z,36.6
2022-08-22T09:54:38.393Z,37.9
2022-08-22T09:56:39.395Z,37.11
2022-08-22T09:58:40.839Z,36.26
2022-08-22T10:02:43.449Z,36.3
2022-08-22T10:04:43.949Z,36.45
2022-08-22T10:06:45.642Z,34.88
2022-08-22T10:12:49.113Z,35.99
2022-08-22T10:14:50.571Z,37.45
2022-08-22T10:16:51.566Z,38.28
2022-08-22T10:18:55.404Z,35.75
2022-08-22T10:20:54.282Z,37.11
2022-08-22T10:22:55.686Z,38.28
2022-08-22T10:24:57.098Z,36.55
2022-08-22T10:27:50.996Z,37.83
2022-08-22T10:29:52.167Z,38.55
2022-08-22T10:31:58.399Z,38.61
2022-08-22T10:33:54.692Z,38.59
2022-08-22T10:35:56.313Z,38.96
2022-08-22T10:37:57.379Z,38.13
2022-08-22T10:39:59.139Z,38.18
2022-08-22T10:42:00.209Z,37.4
2022-08-22T10:44:03.865Z,35.83
2022-08-22T10:46:02.575Z,36.99
2022-08-22T10:50:06.522Z,36.98
2022-08-22T10:52:15.431Z,37.61
2022-08-22T10:54:07.943Z,36.26
2022-08-22T10:56:09.094Z,36.16
2022-08-22T10:58:10.439Z,37.28
2022-08-22T11:00:11.812Z,36.31
2022-08-22T11:02:13.255Z,34.38
2022-08-22T11:04:14.422Z,33.61
2022-08-22T11:06:16.166Z,32.11
2022-08-22T11:08:17.971Z,33.95
2022-08-22T11:10:19.447Z,33.6
2022-08-22T11:12:21.080Z,33.22
2022-08-22T11:14:22.184Z,33.74
2022-08-22T11:16:23.715Z,33.26
2022-08-22T11:18:25.180Z,33.92
2022-08-22T11:22:28.223Z,35.25
2022-08-22T11:24:34.988Z,36.52
2022-08-22T11:26:33.866Z,34.7
2022-08-22T11:28:32.659Z,35.27
2022-08-22T11:32:34.655Z,34.37
2022-08-22T11:34:36.087Z,35.05
2022-08-22T11:36:37.775Z,34.35
2022-08-22T11:38:39.102Z,32.42
2022-08-22T11:40:40.064Z,32.33
2022-08-22T11:42:47.324Z,32.4
2022-08-22T11:44:43.023Z,31.81
2022-08-22T11:48:47.412Z,31.42
2022-08-22T11:50:46.209Z,32.22
2022-08-22T11:52:51.853Z,31.99
2022-08-22T11:54:48.797Z,31.99
2022-08-22T11:56:49.566Z,31.9
2022-08-22T11:58:50.685Z,31.17
2022-08-22T12:00:51.986Z,30.31
2022-08-22T12:02:52.810Z,29.84
2022-08-22T12:04:53.982Z,30.71
2022-08-22T12:06:55.876Z,30.39
2022-08-22T12:08:56.699Z,30.26
2022-08-22T12:10:58.195Z,29.52
2022-08-22T12:13:00.700Z,29.59
2022-08-22T12:15:01.044Z,30.35
2022-08-22T12:17:01.904Z,29.26
2022-08-22T12:19:03.436Z,30.24
2022-08-22T12:21:04.905Z,30.73
2022-08-22T12:25:16.246Z,29.76
2022-08-22T12:27:08.385Z,30.74
2022-08-22T12:29:15.328Z,31.02
2022-08-22T12:31:10.874Z,30.68
2022-08-22T12:33:13.094Z,29.02
2022-08-22T12:35:13.569Z,29.34
2022-08-22T12:37:14.624Z,28.3
2022-08-22T12:39:15.752Z,29.54
2022-08-22T12:41:27.931Z,28.43
2022-08-22T12:43:18.822Z,28.29
2022-08-22T12:45:18.755Z,27.6
2022-08-22T12:47:19.765Z,27.27
2022-08-22T12:49:21.243Z,28.52
2022-08-22T12:51:22.777Z,27.69
2022-08-22T12:53:24.077Z,28.55
2022-08-22T12:55:25.234Z,29.06
2022-08-22T12:57:26.075Z,27.95
2022-08-22T12:59:27.541Z,28.17
2022-08-22T13:03:30.681Z,28.52
2022-08-22T13:05:34.213Z,29.26
2022-08-22T13:07:33.316Z,28.15
2022-08-22T13:09:34.170Z,29.45
2022-08-22T13:11:35.172Z,28.31
2022-08-22T13:13:37.361Z,28.67
2022-08-22T13:15:38.703Z,29.38
2022-08-22T13:17:39.677Z,28.65
2022-08-22T13:19:41.024Z,28.02
2022-08-22T13:21:42.499Z,28.32
2022-08-22T13:23:43.601Z,28.28
2022-08-22T13:25:44.898Z,26.72
2022-08-22T13:29:47.550Z,27.34
2022-08-22T13:31:49.114Z,27.96
2022-08-22T13:33:50.036Z,27.04
2022-08-22T13:35:52.257Z,25.97
2022-08-22T13:37:52.458Z,26.49
2022-08-22T13:39:53.505Z,28.72
2022-08-22T13:41:54.230Z,27.62
2022-08-22T13:43:55.224Z,29.19
2022-08-22T13:45:56.182Z,28.84
2022-08-22T13:47:58.028Z,29.75
2022-08-22T13:49:58.774Z,28.29
2022-08-22T13:52:00.035Z,27.6
2022-08-22T13:54:02.138Z,29.26
2022-08-22T13:56:02.800Z,28.19
2022-08-22T13:58:04.744Z,29.68
2022-08-22T14:00:06.031Z,28.18
2022-08-22T14:02:06.787Z,28.44
2022-08-22T14:04:07.733Z,28.55
2022-08-22T14:06:32.991Z,28.58
2022-08-22T14:08:12.636Z,27.44
2022-08-22T14:12:12.697Z,28.07
2022-08-22T14:14:13.540Z,30.11
2022-08-22T14:16:14.998Z,26.74
2022-08-22T14:18:15.949Z,27.07
2022-08-22T14:20:28.488Z,27.07
2022-08-22T14:22:18.113Z,27.2
2022-08-22T14:24:19.644Z,28.25
2022-08-22T14:26:20.457Z,29.9
2022-08-22T14:28:21.390Z,29.68
2022-08-22T14:30:23.521Z,28.75
2022-08-22T14:32:25.917Z,29.94
2022-08-22T14:34:25.474Z,30.3
2022-08-22T14:36:26.544Z,30.92
2022-08-22T14:38:30.032Z,31.05
2022-08-22T14:40:29.373Z,31.1
2022-08-22T14:42:30.761Z,31.12
2022-08-22T14:44:32.226Z,30.33
2022-08-22T14:46:33.491Z,30.86
2022-08-22T14:48:37.569Z,30.18
2022-08-22T14:50:36.743Z,29.88
2022-08-22T14:52:38.167Z,28.72
2022-08-22T14:54:39.398Z,28.32
2022-08-22T14:56:40.544Z,28.98
2022-08-22T15:00:42.701Z,27.7
2022-08-22T15:02:43.722Z,27.69
2022-08-22T15:04:45.291Z,27.84
2022-08-22T15:06:47.935Z,28.24
2022-08-22T15:10:49.700Z,27.06
2022-08-22T15:12:51.427Z,28.2
2022-08-22T15:14:52.739Z,27.33
2022-08-22T15:16:54.289Z,28.11
2022-08-22T15:18:55.580Z,27.63
2022-08-22T15:20:56.563Z,28.05
2022-08-22T15:22:57.423Z,29.14
2022-08-22T15:24:59.098Z,29.98
2022-08-22T15:27:00.393Z,30.66
2022-08-22T15:29:01.612Z,31.05
2022-08-22T15:31:03.412Z,30.74
2022-08-22T15:33:04.803Z,30.86
2022-08-22T15:35:06.321Z,30.6
2022-08-22T15:37:10.965Z,30.3
2022-08-22T15:41:10.962Z,30.31
2022-08-22T15:43:12.268Z,30.01
2022-08-22T15:45:13.892Z,30.28
2022-08-22T15:47:14.982Z,31.25
2022-08-22T15:49:16.794Z,30.74
2022-08-22T15:53:19.380Z,31.37
2022-08-22T15:55:20.449Z,32.26
2022-08-22T15:57:21.405Z,32.33
2022-08-22T15:59:22.755Z,32.24
2022-08-22T16:01:23.880Z,31.37
2022-08-22T16:03:24.755Z,30.71
2022-08-22T16:05:26.451Z,30.71
2022-08-22T16:07:27.265Z,30.26
2022-08-22T16:09:28.654Z,31.36
2022-08-22T16:11:33.176Z,30.32
2022-08-22T16:13:31.658Z,30.61
2022-08-22T16:15:33.260Z,30.54
2022-08-22T16:17:34.449Z,30.69
2022-08-22T16:19:35.667Z,30.26
2022-08-22T16:21:37.135Z,29.74
2022-08-22T16:25:39.613Z,30.86
2022-08-22T16:27:40.607Z,31.38
2022-08-22T16:29:41.932Z,31.39
2022-08-22T16:31:42.825Z,32.11
2022-08-22T16:35:45.504Z,31.97
2022-08-22T16:37:46.757Z,32.2
2022-08-22T16:39:48.534Z,32.43
2022-08-22T16:41:49.803Z,32.41
2022-08-22T16:43:52.779Z,32.95
2022-08-22T16:45:52.968Z,33.24
2022-08-22T16:48:02.149Z,32.72
2022-08-22T16:49:54.706Z,32.17
2022-08-22T16:51:55.868Z,33.01
2022-08-22T16:53:57.275Z,32.95
2022-08-22T16:55:58.465Z,33.15
2022-08-22T16:58:05.573Z,32.89
2022-08-22T17:00:00.280Z,32.91
2022-08-22T17:02:01.218Z,33.28
2022-08-22T17:04:02.708Z,33.17
2022-08-22T17:06:03.806Z,33.52
2022-08-22T17:08:04.891Z,33.71
2022-08-22T17:10:07.880Z,34.19
2022-08-22T17:12:50.371Z,34.19
2022-08-22T17:14:51.880Z,33.89
2022-08-22T17:16:54.156Z,34.14
2022-08-22T17:18:54.105Z,34.26
2022-08-22T17:20:55.435Z,34.16
2022-08-22T17:22:56.987Z,34.89
2022-08-22T17:24:58.113Z,34.31
2022-08-22T17:29:00.883Z,34.79
2022-08-22T17:31:02.345Z,34.79
2022-08-22T17:33:03.891Z,35.17
2022-08-22T17:35:04.967Z,35.57
2022-08-22T17:37:06.539Z,35.99
2022-08-22T17:39:08.072Z,36.05
2022-08-22T17:41:09.017Z,36.26
2022-08-22T17:45:11.364Z,36.74
2022-08-22T17:47:12.937Z,36.93
2022-08-22T17:49:14.112Z,37.24
2022-08-22T17:51:15.371Z,37.54
2022-08-22T17:53:16.725Z,37.36
2022-08-22T17:55:17.784Z,37.82
2022-08-22T17:57:19.240Z,38.13
2022-08-22T17:59:21.211Z,38.28
2022-08-22T18:01:21.945Z,38.83
2022-08-22T18:03:23.268Z,39.45
2022-08-22T18:05:24.821Z,39.09
2022-08-22T18:07:26.083Z,39.48
2022-08-22T18:09:27.418Z,39.48
2022-08-22T18:11:29.217Z,40.12
2022-08-22T18:13:31.021Z,40.21
2022-08-22T18:15:32.855Z,41.09
2022-08-22T18:17:34.684Z,40.98
2022-08-22T18:19:35.668Z,41.2
2022-08-22T18:21:36.745Z,41.79
2022-08-22T18:23:40.019Z,42.35
2022-08-22T18:25:40.369Z,42.13
2022-08-22T18:27:41.335Z,41.98
2022-08-22T18:29:43.081Z,42.45
2022-08-22T18:31:44.388Z,42.72
2022-08-22T18:33:45.353Z,42.64
2022-08-22T18:35:48.612Z,42.45
2022-08-22T18:37:47.278Z,42.83
2022-08-22T18:39:48.505Z,43.14
2022-08-22T18:41:50.259Z,43.47
2022-08-22T18:43:51.794Z,43.9
2022-08-22T18:45:52.665Z,43.8
2022-08-22T18:47:53.697Z,44.93
2022-08-22T18:49:55.128Z,45.08
2022-08-22T18:51:56.491Z,45.47
2022-08-22T18:53:57.912Z,45.74
2022-08-22T18:55:59.693Z,45.6
2022-08-22T19:00:02.766Z,44.42
2022-08-22T19:02:04.192Z,44.62
2022-08-22T19:04:05.763Z,43.14
2022-08-22T19:06:06.743Z,44.12
2022-08-22T19:08:08.280Z,44.23
2022-08-22T19:10:09.297Z,45.87
2022-08-22T19:12:10.587Z,46.55
2022-08-22T19:14:11.699Z,47.92
2022-08-22T19:16:12.777Z,49.73
2022-08-22T19:18:14.611Z,50.71
2022-08-22T19:20:16.161Z,51.33
2022-08-22T19:22:17.557Z,51.2
2022-08-22T19:24:18.855Z,49.66
2022-08-22T19:26:20.248Z,50.96
2022-08-22T19:28:21.626Z,51.15
2022-08-22T19:30:22.820Z,51.92
2022-08-22T19:32:24.249Z,52.36
2022-08-22T19:34:25.314Z,51.96
2022-08-22T19:36:26.336Z,51.82
2022-08-22T19:38:27.279Z,52.37
2022-08-22T19:40:28.865Z,52.94
2022-08-22T19:42:30.059Z,52.9
2022-08-22T19:44:31.232Z,53.33
2022-08-22T19:46:32.735Z,52.69
2022-08-22T19:48:33.934Z,52.91
2022-08-22T19:50:35.659Z,52.58
2022-08-22T19:52:36.925Z,52.66
2022-08-22T19:56:39.055Z,53.5
2022-08-22T19:58:40.090Z,53.29
2022-08-22T20:00:41.874Z,53.56
2022-08-22T20:02:43.055Z,52.72
2022-08-22T20:04:43.961Z,52.48
2022-08-22T20:06:45.197Z,53.49
2022-08-22T20:08:47.172Z,53.23
2022-08-22T20:10:47.169Z,54.55
2022-08-22T20:12:48.674Z,55.14
2022-08-22T20:14:50.040Z,54.96
2022-08-22T20:16:51.685Z,54.64
2022-08-22T20:19:02.188Z,54.37
2022-08-22T20:20:54.627Z,53.9
2022-08-22T20:22:55.910Z,52.37
2022-08-22T20:24:57.000Z,51.92
2022-08-22T20:27:13.131Z,52.51
2022-08-22T20:29:00.411Z,52.71
2022-08-22T20:31:02.152Z,52.57
2022-08-22T20:35:05.166Z,48.46
2022-08-22T20:37:26.946Z,47.19
2022-08-22T20:39:07.324Z,46.31
2022-08-22T20:41:11.308Z,47.57
2022-08-22T20:43:10.532Z,48.5
2022-08-22T20:45:12.328Z,50.67
2022-08-22T20:47:11.977Z,51.11
2022-08-22T20:49:12.992Z,51.63
2022-08-22T20:51:14.751Z,52.54
2022-08-22T20:53:16.378Z,53.02
2022-08-22T20:55:17.709Z,53.64
2022-08-22T20:57:18.552Z,53.85
2022-08-22T20:59:19.880Z,54.16
2022-08-22T21:01:21.430Z,54.74
2022-08-22T21:03:22.578Z,54.87
2022-08-22T21:05:24.231Z,54.96
2022-08-22T21:07:25.747Z,54.05
2022-08-22T21:09:27.457Z,52.03
2022-08-22T21:11:28.271Z,52.23
2022-08-22T21:13:29.398Z,52.71
2022-08-22T21:15:31.206Z,53.47
2022-08-22T21:17:33.550Z,54.14
2022-08-22T21:19:33.772Z,54.54
2022-08-22T21:21:34.713Z,55.2
2022-08-22T21:23:35.741Z,55.91
2022-08-22T21:25:36.885Z,56.25
2022-08-22T21:27:37.877Z,56.75
2022-08-22T21:31:40.496Z,55.38
2022-08-22T21:33:42.140Z,54.55
2022-08-22T21:35:43.695Z,53.9
2022-08-22T21:37:44.806Z,54.87
2022-08-22T21:39:46.074Z,55.79
2022-08-22T21:41:46.979Z,53.77
2022-08-22T21:43:53.815Z,54.88
2022-08-22T21:45:50.320Z,52.61
2022-08-22T21:47:52.142Z,57.61
2022-08-22T21:49:53.098Z,57.86
2022-08-22T21:51:54.070Z,58.54
2022-08-22T21:54:17.413Z,58.08
2022-08-22T21:55:56.867Z,59.5
2022-08-22T21:57:58.779Z,59.62
2022-08-22T22:00:00.240Z,61.35
2022-08-22T22:02:01.462Z,61.52
2022-08-22T22:04:02.626Z,62.24
2022-08-22T22:06:04.045Z,63.12
2022-08-22T22:08:05.338Z,63.3
2022-08-22T22:10:06.564Z,63.14
2022-08-22T22:12:07.485Z,63.53
2022-08-22T22:14:09.365Z,62.86
2022-08-22T22:16:10.406Z,62.67
2022-08-22T22:18:11.416Z,62.91
2022-08-22T22:20:13.117Z,62.62
2022-08-22T22:22:14.858Z,62.18
2022-08-22T22:24:16.067Z,62.35
2022-08-22T22:26:17.397Z,62.53
2022-08-22T22:28:18.724Z,62.46
2022-08-22T22:30:19.863Z,63.07
2022-08-22T22:32:21.654Z,63.44
2022-08-22T22:34:22.649Z,62.72
2022-08-22T22:36:23.690Z,61.83
2022-08-22T22:38:25.405Z,61.69
2022-08-22T22:40:26.842Z,62.17
2022-08-22T22:42:28.474Z,61.78
2022-08-22T22:44:29.469Z,62.09
2022-08-22T22:46:31.344Z,62.79
2022-08-22T22:48:32.518Z,62.78
2022-08-22T22:50:33.767Z,63.06
2022-08-22T22:52:34.795Z,63.36
2022-08-22T22:54:36.096Z,63.41
2022-08-22T22:56:37.837Z,63.72
2022-08-22T22:58:38.822Z,64.74
2022-08-22T23:00:40.445Z,65.7
2022-08-22T23:04:43.436Z,66.15
2022-08-22T23:06:45.244Z,66.71
2022-08-22T23:08:46.388Z,66.77
2022-08-22T23:10:47.701Z,67.66
2022-08-22T23:14:50.238Z,67.08
2022-08-22T23:16:51.714Z,67.24
2022-08-22T23:18:53.594Z,67.21
2022-08-22T23:20:55.182Z,67.35
2022-08-22T23:22:56.573Z,68.13
2022-08-22T23:24:58.352Z,67.91
2022-08-22T23:26:59.500Z,68.01
2022-08-22T23:29:00.765Z,67.97
2022-08-22T23:31:02.041Z,67.94
2022-08-22T23:33:03.620Z,67.98
2022-08-22T23:35:04.823Z,68.26
2022-08-22T23:37:06.455Z,68.14
2022-08-22T23:39:07.690Z,68.65
2022-08-22T23:41:09.858Z,68.85
2022-08-22T23:43:10.219Z,68.53
2022-08-22T23:45:11.732Z,68.4
2022-08-22T23:47:13.112Z,68.68
2022-08-22T23:49:14.327Z,69.1
2022-08-22T23:51:16.157Z,68.98
2022-08-22T23:53:17.933Z,69.18
2022-08-22T23:55:19.607Z,69.49
2022-08-22T23:56:03.418Z,69.76
2022-08-22T23:58:04.797Z,69.91
